createdAt,value
2023-05-14T00:00:48.313Z,57.50
2023-05-14T00:03:18.900Z,53.00
2023-05-14T00:05:48.077Z,50.88
2023-05-14T00:08:17.107Z,51.63
2023-05-14T00:10:46.158Z,56.72
2023-05-14T00:13:15.228Z,54.15
2023-05-14T00:15:44.694Z,54.92
2023-05-14T00:18:13.816Z,51.10
2023-05-14T00:20:44.316Z,47.33
2023-05-14T00:23:13.383Z,50.63
2023-05-14T00:25:42.398Z,49.42
2023-05-14T00:28:11.394Z,50.75
2023-05-14T00:30:40.895Z,53.03
2023-05-14T00:33:09.956Z,52.00
2023-05-14T00:35:39.005Z,49.80
2023-05-14T00:38:09.822Z,50.08
2023-05-14T00:40:39.110Z,50.73
2023-05-14T00:43:08.144Z,49.05
2023-05-14T00:45:37.168Z,52.00
2023-05-14T00:48:09.138Z,53.45
2023-05-14T00:50:38.267Z,49.42
2023-05-14T00:53:10.394Z,49.58
2023-05-14T00:55:43.179Z,49.60
2023-05-14T00:58:14.389Z,48.92
2023-05-14T01:00:43.584Z,44.45
2023-05-14T01:03:12.744Z,44.88
2023-05-14T01:05:58.339Z,44.95
2023-05-14T01:08:36.813Z,43.80
2023-05-14T01:11:12.755Z,44.13
2023-05-14T01:13:54.409Z,42.55
2023-05-14T01:16:24.510Z,41.35
2023-05-14T01:18:55.653Z,41.42
2023-05-14T01:21:38.100Z,42.88
2023-05-14T01:24:08.062Z,41.65
2023-05-14T01:26:38.387Z,35.88
2023-05-14T01:29:17.774Z,35.53
2023-05-14T01:31:48.466Z,36.33
2023-05-14T01:34:21.143Z,33.30
2023-05-14T01:36:52.521Z,32.45
2023-05-14T01:41:51.374Z,38.58
2023-05-14T01:44:21.473Z,33.80
2023-05-14T01:46:50.806Z,36.53
2023-05-14T01:49:19.808Z,36.65
2023-05-14T01:51:48.861Z,35.17
2023-05-14T01:54:19.326Z,36.90
2023-05-14T01:56:48.460Z,37.97
2023-05-14T01:59:17.674Z,31.65
2023-05-14T02:01:46.750Z,36.00
2023-05-14T02:04:16.045Z,33.17
2023-05-14T02:06:45.092Z,32.35
2023-05-14T02:09:14.126Z,27.00
2023-05-14T02:11:44.618Z,27.45
2023-05-14T02:14:15.262Z,28.85
2023-05-14T02:16:44.302Z,27.90
2023-05-14T02:19:13.413Z,25.52
2023-05-14T02:21:42.548Z,27.88
2023-05-14T02:24:11.554Z,26.67
2023-05-14T02:26:40.614Z,25.15
2023-05-14T02:29:11.594Z,26.20
2023-05-14T02:31:40.742Z,28.42
2023-05-14T02:34:10.964Z,26.33
2023-05-14T02:36:42.754Z,28.15
2023-05-14T02:39:11.813Z,25.23
2023-05-14T02:41:40.873Z,31.80
2023-05-14T02:44:11.285Z,28.63
2023-05-14T02:46:41.100Z,25.77
2023-05-14T02:49:10.257Z,28.85
2023-05-14T02:51:39.990Z,28.75
2023-05-14T02:54:09.004Z,28.65
2023-05-14T02:56:38.013Z,27.55
2023-05-14T02:59:07.019Z,30.95
2023-05-14T03:01:38.087Z,23.73
2023-05-14T03:04:07.805Z,23.58
2023-05-14T03:06:36.814Z,23.75
2023-05-14T03:09:05.887Z,22.70
2023-05-14T03:11:35.043Z,20.13
2023-05-14T03:14:04.085Z,17.55
2023-05-14T03:16:33.145Z,14.88
2023-05-14T03:19:04.093Z,13.68
2023-05-14T03:21:33.229Z,12.85
2023-05-14T03:24:02.262Z,13.60
2023-05-14T03:26:31.300Z,12.95
2023-05-14T03:29:00.568Z,11.02
2023-05-14T03:31:29.704Z,11.75
2023-05-14T03:33:58.868Z,11.88
2023-05-14T03:36:29.363Z,13.45
2023-05-14T03:38:58.425Z,15.47
2023-05-14T03:41:27.403Z,22.05
2023-05-14T03:43:56.512Z,22.30
2023-05-14T03:46:25.634Z,18.52
2023-05-14T03:48:54.732Z,19.17
2023-05-14T03:51:26.331Z,19.90
2023-05-14T03:53:58.102Z,19.77
2023-05-14T03:56:27.301Z,17.02
2023-05-14T03:58:56.322Z,15.88
2023-05-14T04:01:27.190Z,17.67
2023-05-14T04:03:56.459Z,14.15
2023-05-14T04:06:25.637Z,17.42
2023-05-14T04:08:56.066Z,14.65
2023-05-14T04:11:25.116Z,18.10
2023-05-14T04:13:54.158Z,13.52
2023-05-14T04:16:23.214Z,14.25
2023-05-14T04:18:52.268Z,13.20
2023-05-14T04:21:21.287Z,12.90
2023-05-14T04:23:50.802Z,12.40
2023-05-14T04:26:24.215Z,11.40
2023-05-14T04:28:53.344Z,10.10
2023-05-14T04:31:22.439Z,9.90
2023-05-14T04:33:51.473Z,11.15
2023-05-14T04:36:20.677Z,11.35
2023-05-14T04:38:49.711Z,11.98
2023-05-14T04:41:20.169Z,9.90
2023-05-14T04:43:51.847Z,12.07
2023-05-14T04:46:22.509Z,9.63
2023-05-14T04:48:51.926Z,8.68
2023-05-14T04:51:21.110Z,10.85
2023-05-14T04:53:50.159Z,13.27
2023-05-14T04:56:21.587Z,11.23
2023-05-14T04:58:50.657Z,16.00
2023-05-14T05:01:19.693Z,10.90
2023-05-14T05:03:48.742Z,12.70
2023-05-14T05:06:17.940Z,12.15
2023-05-14T05:08:46.973Z,12.57
2023-05-14T05:11:16.288Z,12.38
2023-05-14T05:13:46.705Z,15.48
2023-05-14T05:16:15.812Z,14.53
2023-05-14T05:18:45.773Z,12.32
2023-05-14T05:21:14.904Z,11.23
2023-05-14T05:23:43.916Z,10.70
2023-05-14T05:26:12.993Z,11.40
2023-05-14T05:28:42.036Z,11.55
2023-05-14T05:31:12.629Z,13.10
2023-05-14T05:33:42.062Z,9.50
2023-05-14T05:36:11.201Z,11.65
2023-05-14T05:38:40.212Z,10.27
2023-05-14T05:41:09.273Z,8.88
2023-05-14T05:43:38.288Z,10.52
2023-05-14T05:46:07.886Z,14.60
2023-05-14T05:48:38.335Z,14.63
2023-05-14T05:51:07.525Z,12.70
2023-05-14T05:53:36.588Z,15.10
2023-05-14T05:56:10.874Z,11.38
2023-05-14T05:58:40.126Z,12.90
2023-05-14T06:01:09.124Z,10.32
2023-05-14T06:03:39.487Z,11.32
2023-05-14T06:06:08.878Z,9.73
2023-05-14T06:08:37.871Z,10.75
2023-05-14T06:11:07.064Z,11.43
2023-05-14T06:13:36.124Z,11.63
2023-05-14T06:16:05.451Z,10.52
2023-05-14T06:18:34.574Z,10.60
2023-05-14T06:21:05.210Z,10.77
2023-05-14T06:23:34.376Z,9.73
2023-05-14T06:26:03.439Z,12.00
2023-05-14T06:28:32.438Z,12.20
2023-05-14T06:31:01.430Z,11.07
2023-05-14T06:33:31.345Z,10.18
2023-05-14T06:36:00.984Z,11.35
2023-05-14T06:38:31.481Z,10.32
2023-05-14T06:41:00.580Z,10.07
2023-05-14T06:43:29.658Z,12.80
2023-05-14T06:45:58.744Z,16.05
2023-05-14T06:48:29.598Z,12.38
2023-05-14T06:50:58.840Z,13.60
2023-05-14T06:53:27.937Z,11.48
2023-05-14T06:55:58.471Z,12.38
2023-05-14T06:58:27.525Z,11.20
2023-05-14T07:00:56.503Z,10.38
2023-05-14T07:03:25.594Z,12.73
2023-05-14T07:05:54.599Z,12.48
2023-05-14T07:08:23.635Z,14.13
2023-05-14T07:10:52.651Z,13.48
2023-05-14T07:13:23.137Z,14.98
2023-05-14T07:15:53.085Z,14.40
2023-05-14T07:18:22.301Z,16.75
2023-05-14T07:20:51.449Z,14.40
2023-05-14T07:23:20.602Z,14.38
2023-05-14T07:25:49.617Z,15.52
2023-05-14T07:28:21.383Z,14.60
2023-05-14T07:30:51.934Z,14.48
2023-05-14T07:33:20.965Z,15.13
2023-05-14T07:35:50.072Z,15.73
2023-05-14T07:38:20.156Z,14.32
2023-05-14T07:40:49.415Z,11.77
2023-05-14T07:43:18.455Z,11.45
2023-05-14T07:45:47.614Z,13.55
2023-05-14T07:48:22.820Z,13.52
2023-05-14T07:50:52.034Z,14.90
2023-05-14T07:53:22.067Z,9.02
2023-05-14T07:55:51.894Z,10.40
2023-05-14T07:58:21.005Z,10.10
2023-05-14T08:00:50.066Z,10.63
2023-05-14T08:03:20.720Z,9.57
2023-05-14T08:05:49.868Z,8.43
2023-05-14T08:08:19.094Z,10.60
2023-05-14T08:10:48.128Z,10.13
2023-05-14T08:13:17.188Z,8.07
2023-05-14T08:15:46.334Z,7.15
2023-05-14T08:18:15.390Z,8.25
2023-05-14T08:20:45.879Z,8.07
2023-05-14T08:23:15.195Z,11.00
2023-05-14T08:25:44.206Z,9.48
2023-05-14T08:28:13.218Z,8.73
2023-05-14T08:30:42.265Z,9.63
2023-05-14T08:33:11.312Z,8.38
2023-05-14T08:35:40.379Z,8.93
2023-05-14T08:38:10.824Z,7.82
2023-05-14T08:40:40.013Z,8.80
2023-05-14T08:43:11.284Z,8.38
2023-05-14T08:45:41.588Z,6.25
2023-05-14T08:48:13.948Z,4.75
2023-05-14T08:50:43.745Z,6.32
2023-05-14T08:53:14.172Z,7.00
2023-05-14T08:55:44.277Z,9.65
2023-05-14T08:58:13.544Z,10.50
2023-05-14T09:00:42.675Z,6.88
2023-05-14T09:03:12.277Z,6.63
2023-05-14T09:05:42.101Z,2.13
2023-05-14T09:08:11.266Z,2.65
2023-05-14T09:10:41.809Z,3.38
2023-05-14T09:13:11.007Z,2.58
2023-05-14T09:15:41.718Z,2.05
2023-05-14T09:18:11.513Z,4.53
2023-05-14T09:20:40.633Z,4.50
2023-05-14T09:23:09.620Z,2.50
2023-05-14T09:25:38.670Z,2.70
2023-05-14T09:28:10.438Z,2.63
2023-05-14T09:30:39.505Z,2.50
2023-05-14T09:33:10.425Z,4.88
2023-05-14T09:35:43.360Z,3.17
2023-05-14T09:38:12.834Z,3.05
2023-05-14T09:40:41.871Z,2.88
2023-05-14T09:43:13.005Z,2.90
2023-05-14T09:45:42.455Z,1.55
2023-05-14T09:48:11.523Z,2.80
2023-05-14T09:50:44.217Z,0.80
2023-05-14T09:53:13.674Z,0.75
2023-05-14T09:55:42.748Z,0.90
2023-05-14T09:58:14.739Z,0.63
2023-05-14T10:00:46.522Z,1.40
2023-05-14T10:03:19.511Z,0.88
2023-05-14T10:05:51.635Z,0.77
2023-05-14T10:08:26.745Z,0.68
2023-05-14T10:10:56.641Z,0.65
2023-05-14T10:13:31.765Z,0.60
2023-05-14T10:16:09.339Z,0.82
2023-05-14T10:18:42.654Z,0.63
2023-05-14T10:21:12.839Z,0.88
2023-05-14T10:23:42.586Z,1.35
2023-05-14T10:26:12.433Z,0.95
2023-05-14T10:28:43.292Z,0.70
2023-05-14T10:31:12.363Z,0.80
2023-05-14T10:33:50.329Z,0.43
2023-05-14T10:36:19.834Z,0.45
2023-05-14T10:38:56.185Z,0.45
2023-05-14T10:41:25.254Z,0.50
2023-05-14T10:43:58.837Z,0.57
2023-05-14T10:46:28.041Z,0.50
2023-05-14T10:48:58.448Z,0.63
2023-05-14T10:51:27.666Z,0.60
2023-05-14T10:53:57.718Z,1.05
2023-05-14T10:56:26.781Z,0.80
2023-05-14T10:59:01.165Z,1.85
2023-05-14T11:01:30.409Z,1.70
2023-05-14T11:04:00.353Z,1.08
2023-05-14T11:06:29.960Z,1.13
2023-05-14T11:09:00.282Z,1.00
2023-05-14T11:11:30.434Z,1.40
2023-05-14T11:14:00.918Z,1.15
2023-05-14T11:16:30.935Z,1.87
2023-05-14T11:19:03.544Z,1.20
2023-05-14T11:21:33.373Z,1.02
2023-05-14T11:24:03.844Z,1.15
2023-05-14T11:26:34.300Z,2.47
2023-05-14T11:29:07.124Z,1.47
2023-05-14T11:31:37.239Z,1.88
2023-05-14T11:34:10.036Z,1.73
2023-05-14T11:36:39.057Z,2.38
2023-05-14T11:39:08.406Z,2.25
2023-05-14T11:41:37.433Z,1.85
2023-05-14T11:44:09.202Z,1.60
2023-05-14T11:46:38.490Z,1.60
2023-05-14T11:49:07.819Z,1.67
2023-05-14T11:51:37.922Z,2.22
2023-05-14T11:54:07.058Z,3.35
2023-05-14T11:56:36.138Z,2.35
2023-05-14T11:59:05.165Z,1.30
2023-05-14T12:01:38.979Z,1.30
2023-05-14T12:04:08.220Z,2.03
2023-05-14T12:06:37.328Z,1.80
2023-05-14T12:09:06.809Z,2.05
2023-05-14T12:11:38.484Z,2.45
2023-05-14T12:14:13.473Z,3.90
2023-05-14T12:16:46.264Z,4.93
2023-05-14T12:19:16.549Z,3.75
2023-05-14T12:21:47.015Z,3.63
2023-05-14T12:24:18.789Z,4.43
2023-05-14T12:26:52.234Z,3.47
2023-05-14T12:29:22.166Z,3.95
2023-05-14T12:31:52.594Z,4.57
2023-05-14T12:34:21.664Z,1.77
2023-05-14T12:36:51.046Z,3.58
2023-05-14T12:39:20.110Z,3.70
2023-05-14T12:41:49.192Z,3.15
2023-05-14T12:44:22.668Z,4.18
2023-05-14T12:46:53.096Z,4.23
2023-05-14T12:49:22.196Z,2.60
2023-05-14T12:51:56.752Z,2.83
2023-05-14T12:54:32.949Z,4.05
2023-05-14T12:57:02.002Z,2.40
2023-05-14T12:59:31.045Z,4.60
2023-05-14T13:02:01.511Z,3.22
2023-05-14T13:04:30.707Z,2.40
2023-05-14T13:07:00.307Z,3.42
2023-05-14T13:09:29.356Z,2.17
2023-05-14T13:11:59.047Z,5.07
2023-05-14T13:14:28.016Z,2.33
2023-05-14T13:16:57.208Z,2.53
2023-05-14T13:19:27.741Z,3.17
2023-05-14T13:21:56.718Z,3.53
2023-05-14T13:24:26.263Z,4.25
2023-05-14T13:26:55.342Z,4.25
2023-05-14T13:29:24.423Z,3.65
2023-05-14T13:31:53.962Z,4.32
2023-05-14T13:34:23.166Z,3.92
2023-05-14T13:36:56.308Z,2.63
2023-05-14T13:39:27.285Z,8.73
2023-05-14T13:41:57.157Z,10.63
2023-05-14T13:44:27.024Z,8.27
2023-05-14T13:46:56.099Z,10.88
2023-05-14T13:49:25.177Z,8.85
2023-05-14T13:51:55.701Z,9.30
2023-05-14T13:54:24.914Z,16.23
2023-05-14T13:56:54.025Z,6.25
2023-05-14T13:59:23.987Z,10.00
2023-05-14T14:01:53.462Z,7.90
2023-05-14T14:04:22.684Z,12.13
2023-05-14T14:06:53.194Z,11.80
2023-05-14T14:09:24.080Z,11.37
2023-05-14T14:11:53.349Z,9.30
2023-05-14T14:14:22.418Z,8.45
2023-05-14T14:16:51.409Z,9.13
2023-05-14T14:19:20.524Z,8.20
2023-05-14T14:24:19.714Z,8.98
2023-05-14T14:26:50.118Z,6.88
2023-05-14T14:29:19.142Z,11.87
2023-05-14T14:31:48.197Z,6.88
2023-05-14T14:34:17.299Z,5.70
2023-05-14T14:36:46.362Z,7.18
2023-05-14T14:39:15.392Z,8.75
2023-05-14T14:41:44.470Z,8.27
2023-05-14T14:44:14.875Z,9.27
2023-05-14T14:46:44.067Z,5.73
2023-05-14T14:49:13.099Z,6.07
2023-05-14T14:51:42.297Z,10.25
2023-05-14T14:54:11.327Z,9.95
2023-05-14T14:56:40.667Z,9.75
2023-05-14T14:59:09.678Z,7.10
2023-05-14T15:01:40.184Z,7.93
2023-05-14T15:04:09.274Z,7.18
2023-05-14T15:06:38.235Z,8.98
2023-05-14T15:09:07.765Z,7.22
2023-05-14T15:11:37.537Z,10.57
2023-05-14T15:14:06.885Z,6.25
2023-05-14T15:16:35.899Z,9.65
2023-05-14T15:19:06.526Z,9.23
2023-05-14T15:21:35.821Z,10.18
2023-05-14T15:24:05.730Z,8.68
2023-05-14T15:26:34.773Z,7.78
2023-05-14T15:29:04.734Z,11.23
2023-05-14T15:31:33.829Z,7.80
2023-05-14T15:34:03.694Z,12.40
2023-05-14T15:36:34.306Z,8.55
2023-05-14T15:39:03.662Z,10.23
2023-05-14T15:41:34.440Z,9.80
2023-05-14T15:44:03.427Z,8.25
2023-05-14T15:46:32.549Z,9.02
2023-05-14T15:49:01.671Z,9.00
2023-05-14T15:51:31.901Z,7.55
2023-05-14T15:54:02.431Z,7.90
2023-05-14T15:56:32.075Z,10.43
2023-05-14T15:59:01.138Z,11.10
2023-05-14T16:01:30.261Z,7.50
2023-05-14T16:03:59.438Z,9.00
2023-05-14T16:06:28.650Z,8.05
2023-05-14T16:08:57.787Z,10.43
2023-05-14T16:11:28.298Z,9.25
2023-05-14T16:13:58.479Z,11.03
2023-05-14T16:16:27.732Z,10.68
2023-05-14T16:18:56.917Z,9.10
2023-05-14T16:21:26.035Z,8.55
2023-05-14T16:23:56.307Z,12.13
2023-05-14T16:26:26.517Z,12.70
2023-05-14T16:28:57.531Z,9.25
2023-05-14T16:31:26.685Z,13.77
2023-05-14T16:33:55.709Z,8.45
2023-05-14T16:36:26.613Z,6.80
2023-05-14T16:39:06.748Z,11.13
2023-05-14T16:41:36.731Z,8.63
2023-05-14T16:44:07.202Z,14.30
2023-05-14T16:46:36.330Z,10.10
2023-05-14T16:49:07.686Z,9.75
2023-05-14T16:54:05.896Z,7.57
2023-05-14T16:56:34.978Z,8.07
2023-05-14T16:59:04.221Z,7.72
2023-05-14T17:01:34.960Z,8.60
2023-05-14T17:04:04.112Z,6.97
2023-05-14T17:06:33.224Z,8.40
2023-05-14T17:09:02.497Z,6.95
2023-05-14T17:11:31.703Z,5.50
2023-05-14T17:14:00.978Z,9.38
2023-05-14T17:16:30.098Z,4.65
2023-05-14T17:19:00.733Z,6.43
2023-05-14T17:21:29.920Z,3.78
2023-05-14T17:23:59.304Z,3.63
2023-05-14T17:26:28.363Z,5.35
2023-05-14T17:28:57.416Z,6.15
2023-05-14T17:31:26.528Z,3.38
2023-05-14T17:33:55.562Z,4.53
2023-05-14T17:36:26.071Z,6.13
2023-05-14T17:38:55.046Z,4.03
2023-05-14T17:41:24.070Z,6.00
2023-05-14T17:43:53.149Z,5.75
2023-05-14T17:46:22.493Z,6.68
2023-05-14T17:48:51.534Z,7.53
2023-05-14T17:51:20.529Z,5.10
2023-05-14T17:53:51.057Z,5.03
2023-05-14T17:56:20.402Z,7.57
2023-05-14T17:58:50.413Z,5.93
2023-05-14T18:01:19.516Z,6.65
2023-05-14T18:03:48.649Z,7.32
2023-05-14T18:06:17.719Z,3.85
2023-05-14T18:08:46.747Z,5.30
2023-05-14T18:11:17.236Z,7.55
2023-05-14T18:13:46.282Z,6.67
2023-05-14T18:16:15.410Z,3.80
2023-05-14T18:18:44.481Z,4.40
2023-05-14T18:21:13.569Z,5.22
2023-05-14T18:23:42.544Z,7.20
2023-05-14T18:26:11.644Z,5.25
2023-05-14T18:28:42.293Z,6.60
2023-05-14T18:31:11.358Z,5.50
2023-05-14T18:33:40.495Z,8.30
2023-05-14T18:36:09.641Z,7.35
2023-05-14T18:38:38.737Z,7.30
2023-05-14T18:41:07.909Z,6.97
2023-05-14T18:43:36.962Z,6.32
2023-05-14T18:46:07.540Z,5.97
2023-05-14T18:48:36.705Z,2.80
2023-05-14T18:51:06.505Z,3.65
2023-05-14T18:53:35.750Z,5.43
2023-05-14T18:56:05.155Z,2.92
2023-05-14T18:58:34.341Z,4.30
2023-05-14T19:01:03.486Z,7.00
2023-05-14T19:03:34.104Z,6.10
2023-05-14T19:06:03.343Z,4.88
2023-05-14T19:08:32.399Z,4.40
2023-05-14T19:11:01.412Z,4.50
2023-05-14T19:13:30.548Z,5.85
2023-05-14T19:15:59.631Z,4.00
2023-05-14T19:18:28.876Z,4.95
2023-05-14T19:21:00.053Z,6.28
2023-05-14T19:23:31.087Z,6.63
2023-05-14T19:26:00.205Z,6.47
2023-05-14T19:28:29.398Z,5.07
2023-05-14T19:30:58.494Z,4.38
2023-05-14T19:33:30.231Z,5.13
2023-05-14T19:36:03.327Z,6.60
2023-05-14T19:38:32.523Z,3.83
2023-05-14T19:41:01.538Z,3.95
2023-05-14T19:43:30.566Z,6.35
2023-05-14T19:46:01.586Z,10.07
2023-05-14T19:48:31.366Z,6.65
2023-05-14T19:51:01.856Z,7.85
2023-05-14T19:53:31.070Z,5.23
2023-05-14T19:56:01.991Z,6.32
2023-05-14T19:58:31.058Z,6.38
2023-05-14T20:01:00.913Z,5.38
2023-05-14T20:03:30.186Z,5.35
2023-05-14T20:05:59.264Z,6.57
2023-05-14T20:08:30.159Z,8.95
2023-05-14T20:10:59.130Z,4.50
2023-05-14T20:13:28.179Z,6.78
2023-05-14T20:15:57.158Z,8.43
2023-05-14T20:18:26.685Z,7.63
2023-05-14T20:20:55.967Z,3.97
2023-05-14T20:23:24.991Z,4.70
2023-05-14T20:25:55.749Z,3.25
2023-05-14T20:28:24.855Z,5.20
2023-05-14T20:30:54.927Z,5.57
2023-05-14T20:33:24.055Z,5.97
2023-05-14T20:35:53.532Z,8.85
2023-05-14T20:38:22.620Z,5.93
2023-05-14T20:40:52.067Z,6.03
2023-05-14T20:43:22.448Z,5.45
2023-05-14T20:45:51.537Z,4.70
2023-05-14T20:48:21.556Z,9.40
2023-05-14T20:50:50.697Z,4.00
2023-05-14T20:53:20.429Z,4.20
2023-05-14T20:55:49.448Z,7.63
2023-05-14T20:58:18.454Z,6.70
2023-05-14T21:00:48.926Z,6.43
2023-05-14T21:03:18.079Z,4.53
2023-05-14T21:05:47.176Z,4.85
2023-05-14T21:08:16.206Z,5.13
2023-05-14T21:10:45.470Z,6.25
2023-05-14T21:13:14.690Z,6.68
2023-05-14T21:15:43.883Z,6.10
2023-05-14T21:18:14.589Z,6.78
2023-05-14T21:20:43.649Z,4.35
2023-05-14T21:23:12.811Z,7.00
2023-05-14T21:25:42.455Z,5.63
2023-05-14T21:28:11.495Z,6.70
2023-05-14T21:30:40.469Z,3.63
2023-05-14T21:33:09.555Z,7.28
2023-05-14T21:35:40.085Z,4.97
2023-05-14T21:38:09.919Z,8.60
2023-05-14T21:40:39.032Z,8.25
2023-05-14T21:43:08.214Z,7.22
2023-05-14T21:45:37.339Z,7.32
2023-05-14T21:48:07.059Z,9.27
2023-05-14T21:50:36.093Z,8.00
2023-05-14T21:53:06.484Z,7.32
2023-05-14T21:55:35.884Z,3.60
2023-05-14T21:58:05.027Z,6.55
2023-05-14T22:00:34.176Z,5.65
2023-05-14T22:03:03.268Z,4.63
2023-05-14T22:05:32.295Z,5.53
2023-05-14T22:08:01.367Z,6.65
2023-05-14T22:10:33.506Z,6.65
2023-05-14T22:13:02.564Z,5.93
2023-05-14T22:15:31.623Z,5.55
2023-05-14T22:18:00.837Z,7.50
2023-05-14T22:20:30.000Z,7.60
2023-05-14T22:22:59.006Z,9.50
2023-05-14T22:25:28.112Z,5.78
2023-05-14T22:27:58.496Z,8.90
2023-05-14T22:30:27.484Z,4.97
2023-05-14T22:32:56.546Z,8.27
2023-05-14T22:35:25.814Z,7.60
2023-05-14T22:37:55.004Z,4.53
2023-05-14T22:40:24.021Z,6.78
2023-05-14T22:42:52.986Z,9.70
2023-05-14T22:45:23.571Z,5.10
2023-05-14T22:47:52.745Z,10.52
2023-05-14T22:50:21.846Z,6.90
2023-05-14T22:52:50.942Z,8.32
2023-05-14T22:55:20.052Z,11.57
2023-05-14T22:57:49.166Z,9.10
2023-05-14T23:00:18.796Z,9.02
2023-05-14T23:02:49.304Z,7.85
2023-05-14T23:05:18.573Z,12.13
2023-05-14T23:07:47.598Z,11.02
2023-05-14T23:10:16.636Z,6.95
2023-05-14T23:12:45.694Z,9.07
2023-05-14T23:15:14.750Z,10.50
2023-05-14T23:17:44.055Z,9.82
2023-05-14T23:20:14.981Z,10.20
2023-05-14T23:22:44.011Z,7.53
2023-05-14T23:25:13.035Z,8.48
2023-05-14T23:27:42.014Z,8.90
2023-05-14T23:30:12.120Z,9.18
2023-05-14T23:32:41.159Z,8.18
2023-05-14T23:35:10.934Z,14.05
2023-05-14T23:37:47.295Z,9.52
2023-05-14T23:40:16.937Z,6.63
2023-05-14T23:42:46.532Z,11.10
2023-05-14T23:45:15.585Z,10.73
2023-05-14T23:47:44.756Z,6.82
2023-05-14T23:50:14.101Z,8.48
2023-05-14T23:52:44.561Z,6.40
2023-05-14T23:55:13.683Z,7.93
2023-05-14T23:57:43.881Z,8.15
